Time;durP1;ratioP1;P1;durP2;ratioP2;P2;SDS_P1;SDS_P2;PMS_P1;PMS_P2;Temp;Humidity;BMP_temperature;BMP_pressure;BME280_temperature;BME280_humidity;BME280_pressure;Samples;Min_cycle;Max_cycle;Signal;HPM_P1;HPM_P2
2022/03/02 00:00:15;;;;;;;34.30;16.50;;;5.30;99.90;;;;;;5015930;28;20028;-78
2022/03/02 00:02:44;;;;;;;35.55;15.90;;;5.40;99.90;;;;;;5014390;28;20270;-78
2022/03/02 00:05:10;;;;;;;34.10;16.67;;;5.30;99.90;;;;;;5031899;28;20033;-78
2022/03/02 00:07:36;;;;;;;35.05;17.13;;;5.30;99.90;;;;;;5031978;28;20641;-77
2022/03/02 00:10:03;;;;;;;37.40;16.50;;;5.30;99.90;;;;;;5032042;28;20053;-78
2022/03/02 00:12:30;;;;;;;40.10;18.90;;;5.30;99.90;;;;;;5031877;28;20105;-78
2022/03/02 00:14:56;;;;;;;36.58;17.23;;;5.20;99.90;;;;;;5032356;28;20049;-77
2022/03/02 00:17:22;;;;;;;28.48;13.35;;;5.10;99.90;;;;;;5013992;28;20029;-77
2022/03/02 00:19:48;;;;;;;32.73;17.70;;;5.20;99.90;;;;;;5031958;28;20031;-78
2022/03/02 00:22:13;;;;;;;42.93;18.47;;;5.20;99.90;;;;;;5032492;28;20033;-78
2022/03/02 00:24:39;;;;;;;29.57;14.40;;;5.20;99.90;;;;;;5032185;28;20034;-78
2022/03/02 00:27:05;;;;;;;37.40;17.43;;;5.20;99.90;;;;;;5031837;28;20029;-78
2022/03/02 00:29:31;;;;;;;36.77;17.27;;;5.20;99.90;;;;;;5031915;28;20083;-77
2022/03/02 00:31:57;;;;;;;41.83;19.17;;;5.20;99.90;;;;;;5015678;28;20322;-78
2022/03/02 00:34:22;;;;;;;40.63;17.87;;;5.10;99.90;;;;;;5012287;28;20029;-77
2022/03/02 00:36:48;;;;;;;35.10;17.00;;;5.10;99.90;;;;;;4994174;28;20033;-78
2022/03/02 00:39:14;;;;;;;33.33;16.38;;;5.10;99.90;;;;;;4994355;28;20060;-77
2022/03/02 00:41:39;;;;;;;30.63;14.00;;;5.10;99.90;;;;;;5012163;28;20458;-78
2022/03/02 00:44:05;;;;;;;36.07;18.27;;;5.10;99.90;;;;;;5011539;28;20116;-78
2022/03/02 00:46:31;;;;;;;36.75;17.65;;;5.00;99.90;;;;;;4990442;28;20061;-78
2022/03/02 00:48:59;;;;;;;40.63;18.30;;;5.00;99.90;;;;;;5006801;28;20065;-77
2022/03/02 00:51:26;;;;;;;35.13;17.45;;;5.00;99.90;;;;;;4987195;28;20061;-77
2022/03/02 00:53:52;;;;;;;40.10;17.73;;;5.00;99.90;;;;;;4982181;28;20507;-78
2022/03/02 00:56:19;;;;;;;42.03;19.23;;;4.90;99.90;;;;;;5000093;28;20034;-77
2022/03/02 00:58:45;;;;;;;43.22;19.30;;;4.90;99.90;;;;;;4993876;28;20024;-78
2022/03/02 01:01:10;;;;;;;37.67;18.47;;;5.00;99.90;;;;;;4998258;28;20113;-78
2022/03/02 01:03:36;;;;;;;47.77;21.13;;;4.90;99.90;;;;;;5005141;28;20062;-76
2022/03/02 01:06:03;;;;;;;34.37;17.13;;;5.00;99.90;;;;;;4994221;28;20088;-78
2022/03/02 01:08:30;;;;;;;39.83;18.95;;;4.90;99.90;;;;;;5010849;28;20673;-78
2022/03/02 01:10:55;;;;;;;40.17;17.63;;;4.90;99.90;;;;;;4988347;28;20041;-77
2022/03/02 01:13:21;;;;;;;40.72;18.90;;;4.90;99.90;;;;;;5005808;28;20291;-77
2022/03/02 01:15:47;;;;;;;35.40;18.33;;;4.90;99.90;;;;;;4988629;28;20084;-77
2022/03/02 01:18:13;;;;;;;38.17;18.37;;;5.00;99.90;;;;;;4993976;28;20026;-77
2022/03/02 01:20:39;;;;;;;38.57;17.63;;;5.00;99.90;;;;;;5011513;28;20107;-78
2022/03/02 01:23:05;;;;;;;34.00;17.45;;;5.00;99.90;;;;;;5011502;28;20914;-77
2022/03/02 01:25:30;;;;;;;45.57;21.07;;;5.00;99.90;;;;;;4993946;28;20026;-77
2022/03/02 01:27:56;;;;;;;26.17;13.57;;;4.90;99.90;;;;;;5011258;28;20030;-78
2022/03/02 01:30:22;;;;;;;42.80;19.87;;;4.90;99.90;;;;;;5011397;28;20120;-78
2022/03/02 01:32:47;;;;;;;43.83;19.17;;;5.00;99.90;;;;;;4984102;28;20069;-78
2022/03/02 01:35:13;;;;;;;40.47;20.03;;;5.00;99.90;;;;;;4994200;28;20053;-77
2022/03/02 01:37:39;;;;;;;38.43;19.03;;;5.00;99.90;;;;;;5008644;28;20026;-78
2022/03/02 01:40:09;;;;;;;36.58;18.58;;;5.00;99.90;;;;;;5011470;28;20022;-77
2022/03/02 01:42:36;;;;;;;45.78;20.60;;;5.00;99.90;;;;;;5005602;28;20409;-78
2022/03/02 01:45:04;;;;;;;39.90;20.23;;;5.00;99.90;;;;;;4993623;28;20030;-78
2022/03/02 01:47:29;;;;;;;42.15;19.20;;;5.00;99.90;;;;;;4987469;28;20428;-78
2022/03/02 01:49:55;;;;;;;40.43;18.77;;;5.00;99.90;;;;;;4991533;28;20033;-78
2022/03/02 01:52:21;;;;;;;36.17;18.43;;;5.10;99.90;;;;;;5009245;28;20055;-78
2022/03/02 01:54:47;;;;;;;32.15;15.25;;;5.10;99.90;;;;;;5005161;28;20053;-77
2022/03/02 01:57:14;;;;;;;39.30;19.80;;;5.10;99.90;;;;;;4997920;28;20309;-78
2022/03/02 01:59:40;;;;;;;35.10;18.45;;;5.10;99.90;;;;;;5014925;28;20038;-77
2022/03/02 02:02:06;;;;;;;41.17;18.02;;;5.10;99.90;;;;;;4995742;28;20487;-77
2022/03/02 02:04:32;;;;;;;41.92;20.55;;;5.00;99.90;;;;;;5000960;28;20034;-78
2022/03/02 02:06:58;;;;;;;38.20;19.50;;;5.10;99.90;;;;;;5018609;28;20443;-77
2022/03/02 02:09:24;;;;;;;39.80;18.93;;;5.10;99.90;;;;;;5018109;28;20417;-78
2022/03/02 02:11:51;;;;;;;36.20;17.20;;;5.10;99.90;;;;;;5017540;28;20037;-78
2022/03/02 02:14:16;;;;;;;;;;;5.10;99.90;;;;;;5000669;28;20078;-77
2022/03/02 02:16:42;;;;;;;36.27;18.00;;;5.20;99.90;;;;;;5000689;28;19914;-77
2022/03/02 02:19:08;;;;;;;37.33;18.13;;;5.20;99.90;;;;;;5018006;28;20030;-77
2022/03/02 02:21:34;;;;;;;39.07;19.43;;;5.10;99.90;;;;;;5017986;28;20038;-77
2022/03/02 02:23:59;;;;;;;37.60;18.77;;;5.10;99.90;;;;;;5000598;28;20041;-78
2022/03/02 02:26:25;;;;;;;37.77;17.57;;;5.10;99.90;;;;;;5017900;28;20048;-77
2022/03/02 02:28:52;;;;;;;41.97;19.17;;;5.10;99.90;;;;;;5017977;28;20359;-77
2022/03/02 02:31:18;;;;;;;47.88;19.45;;;5.10;99.90;;;;;;5011658;28;20284;-78
2022/03/02 02:33:44;;;;;;;42.15;20.70;;;5.10;99.90;;;;;;4993857;28;20417;-78
2022/03/02 02:36:11;;;;;;;40.60;19.13;;;5.00;99.90;;;;;;5000143;28;20033;-77
2022/03/02 02:38:37;;;;;;;40.78;20.80;;;5.00;99.90;;;;;;5010087;28;20029;-78
2022/03/02 02:41:02;;;;;;;41.47;21.13;;;5.00;99.90;;;;;;5017823;28;20079;-78
2022/03/02 02:43:28;;;;;;;41.67;20.33;;;5.00;99.90;;;;;;5017184;28;20436;-77
2022/03/02 02:45:54;;;;;;;40.00;19.92;;;5.00;99.90;;;;;;5000334;28;20022;-77
2022/03/02 02:48:21;;;;;;;40.45;19.38;;;5.00;99.90;;;;;;4999829;28;20105;-78
2022/03/02 02:50:47;;;;;;;45.58;20.52;;;5.00;99.90;;;;;;5017477;28;20026;-78
2022/03/02 02:53:13;;;;;;;42.58;19.23;;;5.10;99.90;;;;;;4999835;28;20044;-77
2022/03/02 02:55:42;;;;;;;42.30;19.58;;;5.10;99.90;;;;;;4999958;28;20044;-78
2022/03/02 02:58:10;;;;;;;36.72;18.60;;;5.10;99.90;;;;;;5017130;28;20104;-77
2022/03/02 03:00:39;;;;;;;39.53;18.95;;;5.10;99.90;;;;;;5015816;28;20034;-77
2022/03/02 03:03:05;;;;;;;41.25;19.42;;;5.10;99.90;;;;;;5017235;28;20029;-77
2022/03/02 03:05:32;;;;;;;43.30;19.00;;;5.10;99.90;;;;;;4999772;28;20033;-77
2022/03/02 03:08:06;;;;;;;37.92;19.05;;;5.10;99.90;;;;;;5016737;28;20148;-78
2022/03/02 03:10:33;;;;;;;39.60;18.80;;;5.10;99.90;;;;;;5016891;28;20447;-78
2022/03/02 03:12:59;;;;;;;36.38;18.70;;;5.10;99.90;;;;;;4999494;28;20402;-78
2022/03/02 03:15:25;;;;;;;39.28;18.33;;;5.10;99.90;;;;;;4998542;28;20026;-78
2022/03/02 03:17:51;;;;;;;43.10;19.08;;;5.10;99.90;;;;;;4999379;28;20033;-77
2022/03/02 03:20:20;;;;;;;37.83;19.20;;;5.10;99.90;;;;;;5017054;28;20026;-77
2022/03/02 03:22:47;;;;;;;36.05;18.40;;;5.10;99.90;;;;;;4999172;28;20098;-77
2022/03/02 03:25:13;;;;;;;43.13;19.15;;;5.10;99.90;;;;;;4999665;28;20034;-77
2022/03/02 03:27:40;;;;;;;40.22;19.73;;;5.10;99.90;;;;;;4999181;28;20037;-77
2022/03/02 03:30:08;;;;;;;38.90;19.20;;;5.10;99.90;;;;;;4999159;28;20049;-77
2022/03/02 03:32:35;;;;;;;39.28;18.73;;;5.10;99.90;;;;;;5002144;28;20046;-77
2022/03/02 03:35:01;;;;;;;42.10;20.30;;;5.00;99.90;;;;;;4999070;28;21344;-76
2022/03/02 03:37:27;;;;;;;48.28;19.92;;;5.10;99.90;;;;;;4999199;28;20088;-77
2022/03/02 03:39:53;;;;;;;38.33;18.73;;;5.10;99.90;;;;;;4998940;28;20026;-77
2022/03/02 03:42:19;;;;;;;38.60;19.00;;;5.00;99.90;;;;;;4999052;28;20033;-78
2022/03/02 03:44:45;;;;;;;36.30;17.50;;;5.00;99.90;;;;;;5016294;28;20030;-78
2022/03/02 03:47:10;;;;;;;49.87;18.87;;;5.00;99.90;;;;;;5016535;28;20030;-77
2022/03/02 03:49:36;;;;;;;41.10;19.30;;;5.00;99.90;;;;;;4998991;28;20030;-77
2022/03/02 03:52:03;;;;;;;39.90;19.40;;;4.90;99.90;;;;;;5016280;28;20084;-78
2022/03/02 03:54:28;;;;;;;40.45;19.15;;;4.90;99.90;;;;;;4979380;28;20050;-77
2022/03/02 03:56:54;;;;;;;37.33;18.67;;;4.80;99.90;;;;;;5002707;28;20080;-78
2022/03/02 03:59:20;;;;;;;45.87;18.43;;;4.80;99.90;;;;;;4999064;28;20030;-77
2022/03/02 04:01:45;;;;;;;41.73;19.60;;;4.70;99.90;;;;;;4979285;28;20034;-77
2022/03/02 04:04:11;;;;;;;36.13;17.43;;;4.60;99.90;;;;;;5015692;28;20030;-77
2022/03/02 04:06:37;;;;;;;40.67;18.93;;;4.60;99.90;;;;;;5016210;28;20372;-77
2022/03/02 04:09:03;;;;;;;45.73;19.70;;;4.50;99.90;;;;;;5015920;28;20395;-77
2022/03/02 04:11:30;;;;;;;36.97;18.17;;;4.50;99.90;;;;;;5015885;28;20034;-78
2022/03/02 04:13:55;;;;;;;;;;;4.40;99.90;;;;;;5016309;28;20451;-77
2022/03/02 04:16:21;;;;;;;42.90;19.10;;;4.40;99.90;;;;;;4999037;28;19906;-77
2022/03/02 04:18:47;;;;;;;37.17;19.60;;;4.30;99.90;;;;;;5016227;28;20049;-78
2022/03/02 04:21:13;;;;;;;27.57;14.33;;;4.30;99.90;;;;;;4998776;28;20302;-77
2022/03/02 04:23:39;;;;;;;39.57;18.33;;;4.20;99.90;;;;;;4996816;28;20025;-78
2022/03/02 04:26:04;;;;;;;34.10;14.55;;;4.10;99.90;;;;;;4998433;28;20105;-78
2022/03/02 04:28:30;;;;;;;41.10;19.70;;;4.10;99.90;;;;;;5015645;28;20464;-77
2022/03/02 04:30:56;;;;;;;41.40;19.13;;;4.10;99.90;;;;;;5025252;28;20048;-77
2022/03/02 04:33:22;;;;;;;36.70;18.83;;;4.10;99.90;;;;;;5035164;28;20029;-78
2022/03/02 04:35:48;;;;;;;39.50;20.27;;;4.00;99.90;;;;;;5035256;28;20447;-78
2022/03/02 04:38:14;;;;;;;38.77;19.07;;;4.00;99.90;;;;;;5017874;28;20029;-78
2022/03/02 04:40:39;;;;;;;43.63;20.13;;;4.00;99.90;;;;;;5035201;28;20036;-77
2022/03/02 04:43:05;;;;;;;36.93;19.10;;;4.10;99.90;;;;;;5035220;28;20321;-78
2022/03/02 04:45:31;;;;;;;44.53;19.50;;;4.10;99.90;;;;;;5017292;28;20420;-78
2022/03/02 04:47:58;;;;;;;43.33;20.52;;;4.20;99.90;;;;;;5017682;28;20036;-78
2022/03/02 04:50:25;;;;;;;37.15;17.63;;;4.20;99.90;;;;;;5017628;28;20032;-78
2022/03/02 04:52:52;;;;;;;;;;;4.20;99.90;;;;;;5035296;28;20029;-78
2022/03/02 04:55:18;;;;;;;39.03;17.75;;;4.20;99.90;;;;;;5035190;28;19940;-78
2022/03/02 04:57:49;;;;;;;37.85;19.20;;;4.20;99.90;;;;;;5017209;28;20065;-77
2022/03/02 05:00:21;;;;;;;38.95;18.10;;;4.30;99.90;;;;;;5034990;28;20075;-77
2022/03/02 05:02:47;;;;;;;42.72;18.50;;;4.30;99.90;;;;;;5016998;28;20037;-78
2022/03/02 05:05:16;;;;;;;39.00;18.90;;;4.20;99.90;;;;;;5033392;28;20033;-78
2022/03/02 05:07:42;;;;;;;43.33;20.00;;;4.30;99.90;;;;;;5011626;28;20051;-77
2022/03/02 05:10:09;;;;;;;44.90;19.45;;;4.20;99.90;;;;;;5036878;28;20029;-78
2022/03/02 05:12:36;;;;;;;37.85;18.42;;;4.20;99.90;;;;;;5017898;28;20112;-77
2022/03/02 05:15:02;;;;;;;40.55;18.48;;;4.10;99.90;;;;;;5009843;28;20104;-77
2022/03/02 05:17:28;;;;;;;;;;;4.10;99.90;;;;;;5017529;28;20033;-78
2022/03/02 05:19:54;;;;;;;39.80;17.17;;;4.00;99.90;;;;;;5034550;28;19913;-77
2022/03/02 05:22:20;;;;;;;41.03;18.60;;;3.90;99.90;;;;;;5034223;28;20025;-77
2022/03/02 05:24:45;;;;;;;43.70;19.97;;;3.90;99.90;;;;;;5015019;28;20033;-77
2022/03/02 05:27:11;;;;;;;41.33;20.17;;;3.80;99.90;;;;;;5034461;28;20474;-78
2022/03/02 05:29:37;;;;;;;39.23;18.43;;;3.80;99.90;;;;;;5016939;28;20025;-78
2022/03/02 05:32:04;;;;;;;41.73;18.50;;;3.80;99.90;;;;;;5036878;28;20053;-78
2022/03/02 05:34:29;;;;;;;39.58;18.90;;;3.70;99.90;;;;;;5000922;28;20034;-78
2022/03/02 05:36:55;;;;;;;38.47;18.67;;;3.70;99.90;;;;;;5035941;28;20041;-78
2022/03/02 05:39:22;;;;;;;41.60;18.40;;;3.70;99.90;;;;;;5021196;28;20017;-77
2022/03/02 05:41:48;;;;;;;38.05;19.08;;;3.70;99.90;;;;;;5038022;28;20039;-77
2022/03/02 05:44:14;;;;;;;41.80;18.77;;;3.70;99.90;;;;;;5038672;28;20029;-78
2022/03/02 05:46:39;;;;;;;41.00;20.67;;;3.60;99.90;;;;;;5038348;28;20088;-78
2022/03/02 05:49:08;;;;;;;40.43;19.17;;;3.60;99.90;;;;;;5038537;28;20121;-77
2022/03/02 05:51:34;;;;;;;38.22;18.33;;;3.60;99.90;;;;;;5038093;28;20021;-78
2022/03/02 05:54:00;;;;;;;32.72;18.38;;;3.60;99.90;;;;;;5038111;28;20048;-77
2022/03/02 05:56:27;;;;;;;39.90;19.83;;;3.60;99.90;;;;;;5020192;28;20027;-78
2022/03/02 05:58:53;;;;;;;42.78;20.48;;;3.70;99.90;;;;;;5037882;28;20068;-76
2022/03/02 06:01:20;;;;;;;42.20;19.80;;;3.70;99.90;;;;;;5020349;28;20331;-77
2022/03/02 06:03:46;;;;;;;43.42;18.40;;;3.70;99.90;;;;;;5037632;28;20049;-76
2022/03/02 06:06:12;;;;;;;41.17;19.07;;;3.70;99.90;;;;;;5019850;28;20065;-77
2022/03/02 06:08:38;;;;;;;41.42;19.02;;;3.50;99.90;;;;;;5037863;28;20108;-77
2022/03/02 06:11:04;;;;;;;43.87;19.87;;;3.50;99.90;;;;;;5037879;28;20467;-76
2022/03/02 06:13:30;;;;;;;28.30;13.23;;;3.50;99.90;;;;;;5037594;28;20029;-77
2022/03/02 06:16:00;;;;;;;40.00;17.08;;;3.40;99.90;;;;;;5020018;28;20371;-77
2022/03/02 06:18:26;;;;;;;40.40;18.33;;;3.30;99.90;;;;;;5019970;28;20061;-77
2022/03/02 06:20:52;;;;;;;41.90;19.10;;;3.20;99.90;;;;;;5020098;28;20052;-77
2022/03/02 06:23:21;;;;;;;36.97;18.20;;;3.10;99.90;;;;;;5037457;28;20033;-77
2022/03/02 06:25:48;;;;;;;43.33;18.70;;;3.10;99.90;;;;;;5035469;28;20037;-76
2022/03/02 06:28:14;;;;;;;39.00;18.30;;;3.20;99.90;;;;;;5012404;28;20506;-76
2022/03/02 06:30:40;;;;;;;44.28;19.40;;;3.10;99.90;;;;;;5012772;28;20049;-77
2022/03/02 06:33:07;;;;;;;44.33;19.17;;;3.10;99.90;;;;;;5011029;28;20033;-77
2022/03/02 06:35:33;;;;;;;;;;;3.20;99.90;;;;;;5027062;28;20034;-77
2022/03/02 06:37:58;;;;;;;29.97;12.63;;;3.20;99.90;;;;;;5010207;28;19924;-76
2022/03/02 06:40:25;;;;;;;36.43;17.10;;;3.20;99.90;;;;;;5033832;28;20022;-76
2022/03/02 06:43:18;;;;;;;43.50;19.50;;;3.20;99.90;;;;;;5015890;28;20030;-77
2022/03/02 06:46:06;;;;;;;39.92;18.52;;;3.10;99.90;;;;;;5012084;28;20428;-76
2022/03/02 06:48:37;;;;;;;43.60;18.25;;;3.10;99.90;;;;;;5010407;28;20049;-76
2022/03/02 06:51:07;;;;;;;49.90;19.73;;;3.20;99.90;;;;;;4994874;28;20037;-76
2022/03/02 06:53:35;;;;;;;46.30;19.25;;;3.20;99.90;;;;;;5029476;28;20025;-77
2022/03/02 06:56:06;;;;;;;49.53;22.15;;;3.20;99.90;;;;;;5013539;28;20033;-77
2022/03/02 06:58:52;;;;;;;41.47;19.05;;;3.30;99.90;;;;;;5028117;28;20021;-76
2022/03/02 07:01:27;;;;;;;36.50;17.23;;;3.30;99.90;;;;;;5011206;28;20025;-79
2022/03/02 07:03:57;;;;;;;47.03;20.67;;;3.30;99.90;;;;;;5027468;28;20030;-76
2022/03/02 07:06:24;;;;;;;45.75;21.83;;;3.40;99.90;;;;;;5024398;28;20026;-76
2022/03/02 07:08:50;;;;;;;46.90;19.52;;;3.50;99.90;;;;;;5027323;28;20038;-76
2022/03/02 07:11:17;;;;;;;46.85;19.65;;;3.60;99.90;;;;;;5006976;28;20033;-76
2022/03/02 07:13:44;;;;;;;43.67;20.00;;;3.60;99.90;;;;;;5029646;28;20051;-76
2022/03/02 07:16:12;;;;;;;46.40;19.85;;;3.80;99.90;;;;;;5009195;28;20151;-76
2022/03/02 07:18:38;;;;;;;46.80;21.27;;;4.00;99.90;;;;;;5008833;28;20293;-78
2022/03/02 07:21:21;;;;;;;43.13;19.83;;;4.30;99.90;;;;;;5011023;28;20029;-78
2022/03/02 07:23:54;;;;;;;45.70;20.05;;;4.50;99.90;;;;;;5026968;28;20017;-78
2022/03/02 07:26:21;;;;;;;42.63;19.20;;;5.20;99.90;;;;;;5027411;28;20026;-76
2022/03/02 07:28:48;;;;;;;42.00;19.08;;;5.60;99.90;;;;;;5030537;28;20075;-76
2022/03/02 07:31:14;;;;;;;39.47;19.23;;;5.80;99.90;;;;;;5006337;28;20045;-76
2022/03/02 07:33:42;;;;;;;40.67;19.92;;;6.10;99.90;;;;;;5009670;28;20121;-76
2022/03/02 07:36:09;;;;;;;43.85;18.15;;;6.40;99.90;;;;;;5005190;28;20735;-76
2022/03/02 07:38:36;;;;;;;38.22;18.08;;;6.70;99.90;;;;;;5010800;28;20088;-76
2022/03/02 07:41:10;;;;;;;38.65;20.17;;;7.00;99.90;;;;;;5010312;28;20030;-76
2022/03/02 07:43:38;;;;;;;45.10;19.63;;;7.40;99.90;;;;;;4990052;28;20117;-76
2022/03/02 07:46:09;;;;;;;36.42;18.77;;;7.90;99.90;;;;;;5010696;28;20435;-76
2022/03/02 07:48:37;;;;;;;32.63;16.55;;;8.20;99.90;;;;;;5005234;28;20034;-76
2022/03/02 07:51:04;;;;;;;37.15;16.58;;;8.40;99.90;;;;;;5007754;28;20022;-76
2022/03/02 07:53:40;;;;;;;45.75;18.23;;;8.60;99.90;;;;;;5010689;28;20494;-76
2022/03/02 07:56:08;;;;;;;36.80;18.05;;;8.50;99.90;;;;;;5007657;28;20029;-76
2022/03/02 07:58:38;;;;;;;36.65;15.63;;;8.50;99.90;;;;;;5003092;28;20112;-76
2022/03/02 08:01:04;;;;;;;39.72;16.75;;;8.20;99.90;;;;;;5008003;28;20052;-76
2022/03/02 08:03:34;;;;;;;37.63;16.77;;;7.70;99.90;;;;;;5010588;28;20302;-76
2022/03/02 08:06:00;;;;;;;36.33;17.73;;;7.40;99.90;;;;;;5011003;28;20420;-76
2022/03/02 08:08:26;;;;;;;33.50;17.37;;;7.30;99.90;;;;;;5024016;28;20421;-76
2022/03/02 08:10:52;;;;;;;38.05;16.10;;;7.30;99.90;;;;;;5007909;28;20018;-76
2022/03/02 08:13:18;;;;;;;37.05;18.02;;;7.30;99.90;;;;;;5009384;28;20050;-76
2022/03/02 08:15:44;;;;;;;41.43;17.63;;;7.30;99.90;;;;;;5009572;28;20018;-77
2022/03/02 08:18:10;;;;;;;36.55;16.08;;;7.50;99.90;;;;;;5008039;28;20022;-76
2022/03/02 08:20:43;;;;;;;40.22;17.02;;;7.70;99.90;;;;;;5010430;28;20084;-76
2022/03/02 08:23:09;;;;;;;26.88;13.75;;;7.50;99.90;;;;;;4997924;28;20037;-76
2022/03/02 08:25:35;;;;;;;23.38;10.68;;;7.20;99.90;;;;;;5010406;28;20090;-76
2022/03/02 08:28:02;;;;;;;34.10;15.40;;;7.00;99.90;;;;;;5009355;28;20029;-79
2022/03/02 08:30:32;;;;;;;33.65;16.33;;;7.30;99.90;;;;;;5012117;28;20049;-76
2022/03/02 08:33:00;;;;;;;38.05;17.27;;;7.40;99.90;;;;;;5028725;28;20032;-76
2022/03/02 08:35:34;;;;;;;39.67;18.58;;;7.60;99.90;;;;;;5033730;28;20049;-76
2022/03/02 08:38:01;;;;;;;41.40;18.15;;;7.80;99.90;;;;;;5033371;28;20052;-76
2022/03/02 08:40:27;;;;;;;39.55;18.35;;;7.70;99.90;;;;;;5012045;28;20022;-76
2022/03/02 08:42:54;;;;;;;40.20;18.70;;;8.10;99.90;;;;;;5029043;28;20442;-77
2022/03/02 08:45:20;;;;;;;33.80;13.57;;;8.40;99.90;;;;;;5026511;28;20490;-76
2022/03/02 08:47:46;;;;;;;37.60;17.10;;;8.30;99.90;;;;;;5012692;28;20083;-77
2022/03/02 08:50:11;;;;;;;37.23;17.33;;;8.30;99.90;;;;;;5030084;28;20145;-76
2022/03/02 08:52:37;;;;;;;40.13;17.35;;;8.60;99.90;;;;;;5027618;28;20283;-77
2022/03/02 08:55:08;;;;;;;35.47;14.77;;;8.50;99.90;;;;;;5012816;28;20029;-76
2022/03/02 08:57:35;;;;;;;38.97;18.92;;;8.50;99.90;;;;;;5024114;28;20045;-76
2022/03/02 09:00:05;;;;;;;39.72;17.63;;;8.50;99.90;;;;;;5011950;28;20464;-76
2022/03/02 09:02:34;;;;;;;37.95;17.10;;;8.50;99.90;;;;;;5024396;28;20025;-76
2022/03/02 09:05:02;;;;;;;38.13;17.38;;;8.50;99.90;;;;;;5006472;28;20034;-76
2022/03/02 09:07:28;;;;;;;31.20;15.63;;;8.50;99.90;;;;;;5039073;28;20056;-80
2022/03/02 09:09:55;;;;;;;36.88;17.92;;;8.50;99.90;;;;;;5029714;28;20408;-76
2022/03/02 09:12:20;;;;;;;31.80;16.42;;;8.40;99.90;;;;;;5033025;28;20110;-76
2022/03/02 09:14:47;;;;;;;33.10;15.10;;;8.40;99.90;;;;;;5028515;28;20428;-76
2022/03/02 09:17:22;;;;;;;31.48;14.68;;;8.30;99.90;;;;;;5030793;28;20428;-77
2022/03/02 09:19:48;;;;;;;33.38;14.65;;;8.20;99.90;;;;;;5015136;28;20041;-80
2022/03/02 09:22:15;;;;;;;31.25;15.60;;;8.10;99.90;;;;;;5011673;28;20018;-76
2022/03/02 09:24:43;;;;;;;32.40;15.95;;;8.40;99.90;;;;;;5029952;28;20049;-79
2022/03/02 09:27:09;;;;;;;32.92;15.48;;;8.70;99.90;;;;;;5009025;28;20514;-80
2022/03/02 09:29:38;;;;;;;30.30;14.25;;;8.80;99.90;;;;;;5008017;28;20447;-76
2022/03/02 09:32:07;;;;;;;31.83;16.05;;;8.70;99.90;;;;;;5018853;28;20042;-77
2022/03/02 09:34:33;;;;;;;35.08;16.25;;;8.70;99.90;;;;;;5027866;28;20041;-76
2022/03/02 09:36:59;;;;;;;35.22;15.75;;;8.80;99.90;;;;;;5025596;28;20025;-76
2022/03/02 09:39:25;;;;;;;29.25;14.48;;;8.90;99.90;;;;;;5010261;28;20516;-77
2022/03/02 09:41:55;;;;;;;38.55;16.00;;;8.60;99.90;;;;;;5026113;28;20439;-76
2022/03/02 09:44:25;;;;;;;32.38;15.68;;;8.80;99.90;;;;;;5028262;28;20040;-77
2022/03/02 09:46:55;;;;;;;37.85;16.17;;;9.10;99.90;;;;;;5008665;28;20444;-77
2022/03/02 09:49:23;;;;;;;31.20;13.70;;;9.30;99.90;;;;;;5026896;28;20068;-77
2022/03/02 09:52:03;;;;;;;30.13;13.95;;;9.20;99.90;;;;;;5024581;28;20046;-79
2022/03/02 09:54:29;;;;;;;34.55;15.90;;;9.20;99.90;;;;;;5025444;28;20332;-78
2022/03/02 09:56:56;;;;;;;32.28;14.77;;;9.30;99.90;;;;;;5009623;28;20113;-77
2022/03/02 09:59:25;;;;;;;24.55;10.73;;;9.30;99.90;;;;;;5027365;28;20026;-77
2022/03/02 10:01:52;;;;;;;26.83;11.18;;;9.10;99.90;;;;;;5008767;28;20112;-81
2022/03/02 10:04:23;;;;;;;30.80;14.68;;;8.80;99.90;;;;;;5021919;28;20308;-77
2022/03/02 10:07:26;;;;;;;27.92;13.20;;;8.80;99.90;;;;;;5023560;28;20379;-77
2022/03/02 10:09:51;;;;;;;29.83;13.75;;;8.70;99.90;;;;;;5025133;28;20049;-77
2022/03/02 10:12:21;;;;;;;32.78;15.25;;;8.80;99.90;;;;;;5023964;28;20049;-77
2022/03/02 10:14:49;;;;;;;28.77;14.02;;;8.80;99.90;;;;;;5022171;28;20052;-77
2022/03/02 10:17:20;;;;;;;20.50;8.77;;;8.80;99.90;;;;;;5022990;28;20053;-80
2022/03/02 10:19:53;;;;;;;26.17;13.30;;;8.50;99.90;;;;;;5026603;28;20026;-77
2022/03/02 10:22:44;;;;;;;36.67;13.73;;;8.60;99.90;;;;;;5026366;28;20026;-77
2022/03/02 10:25:13;;;;;;;29.95;14.55;;;8.60;99.90;;;;;;5024844;28;20026;-77
2022/03/02 10:28:24;;;;;;;25.33;11.75;;;8.70;99.90;;;;;;5030673;28;20056;-77
2022/03/02 10:31:17;;;;;;;36.55;14.48;;;8.50;99.90;;;;;;4974727;28;20105;-76
2022/03/02 10:33:51;;;;;;;37.97;12.65;;;8.30;99.90;;;;;;4974446;28;20764;-77
2022/03/02 10:36:17;;;;;;;28.45;12.32;;;8.40;99.90;;;;;;4968568;28;20053;-77
2022/03/02 10:39:07;;;;;;;43.73;13.60;;;8.40;99.90;;;;;;4968167;28;20049;-77
2022/03/02 10:41:39;;;;;;;21.42;9.13;;;8.40;99.90;;;;;;4955185;28;20447;-77
2022/03/02 10:44:19;;;;;;;28.15;11.93;;;8.40;99.90;;;;;;4955328;28;20033;-78
2022/03/02 10:46:58;;;;;;;31.42;14.35;;;8.20;99.90;;;;;;4969745;28;20188;-78
2022/03/02 10:49:26;;;;;;;28.20;13.93;;;8.20;99.90;;;;;;4961338;28;20023;-77
2022/03/02 10:51:56;;;;;;;26.17;12.32;;;8.40;99.90;;;;;;4950624;28;20358;-79
2022/03/02 10:54:23;;;;;;;29.00;13.60;;;8.30;99.90;;;;;;4953351;28;20472;-78
2022/03/02 10:56:53;;;;;;;30.88;14.18;;;8.40;99.90;;;;;;4951293;28;20855;-81
2022/03/02 10:59:24;;;;;;;26.65;11.55;;;8.50;99.90;;;;;;4968271;28;20095;-79
2022/03/02 11:01:51;;;;;;;28.55;12.68;;;8.40;99.90;;;;;;4965062;28;20042;-76
2022/03/02 11:04:22;;;;;;;28.23;13.30;;;8.60;99.90;;;;;;4981453;28;20037;-81
2022/03/02 11:06:48;;;;;;;29.23;13.45;;;8.60;99.90;;;;;;4960658;28;21430;-79
2022/03/02 11:09:16;;;;;;;25.27;10.77;;;8.70;99.90;;;;;;5003972;28;20026;-77
2022/03/02 11:11:42;;;;;;;26.50;12.73;;;8.70;99.90;;;;;;5029493;28;20079;-76
2022/03/02 11:14:09;;;;;;;28.33;11.75;;;8.70;99.90;;;;;;5027344;28;20022;-78
2022/03/02 11:16:35;;;;;;;34.97;15.40;;;8.70;99.90;;;;;;5002342;28;20034;-78
2022/03/02 11:19:12;;;;;;;29.43;14.37;;;8.70;99.90;;;;;;5008916;28;20036;-78
2022/03/02 11:21:40;;;;;;;31.15;14.35;;;8.70;99.90;;;;;;5009395;28;20124;-78
2022/03/02 11:24:07;;;;;;;23.30;12.15;;;8.80;99.90;;;;;;5009249;28;20065;-77
2022/03/02 11:26:36;;;;;;;24.88;13.18;;;8.80;99.90;;;;;;5009600;28;20120;-78
2022/03/02 11:29:10;;;;;;;29.42;12.10;;;8.90;99.90;;;;;;5008449;28;20041;-77
2022/03/02 11:31:49;;;;;;;33.72;14.60;;;9.00;99.90;;;;;;5011640;28;20060;-78
2022/03/02 11:34:19;;;;;;;24.92;11.60;;;9.00;99.90;;;;;;5024809;28;20080;-78
2022/03/02 11:36:51;;;;;;;24.67;12.70;;;9.00;99.90;;;;;;5026822;28;21482;-78
2022/03/02 11:39:19;;;;;;;22.38;11.18;;;9.10;99.90;;;;;;5026043;28;20176;-78
2022/03/02 11:41:46;;;;;;;21.92;10.85;;;9.10;99.90;;;;;;5011223;28;20041;-77
2022/03/02 11:44:31;;;;;;;26.77;12.05;;;9.20;99.90;;;;;;5027120;28;20038;-78
2022/03/02 11:47:07;;;;;;;31.58;12.45;;;9.30;99.90;;;;;;5026591;28;20522;-78
2022/03/02 11:49:44;;;;;;;22.02;11.43;;;9.40;99.90;;;;;;5007931;28;20132;-79
2022/03/02 11:52:15;;;;;;;28.92;13.27;;;9.50;99.90;;;;;;5004903;28;20040;-78
2022/03/02 11:54:43;;;;;;;21.60;11.85;;;9.60;99.90;;;;;;5026563;28;20025;-80
2022/03/02 11:57:09;;;;;;;24.80;13.00;;;9.70;99.90;;;;;;5006882;28;20425;-78
2022/03/02 11:59:37;;;;;;;24.93;10.80;;;9.60;99.90;;;;;;5027425;28;20042;-78
2022/03/02 12:02:13;;;;;;;25.92;13.27;;;9.70;99.90;;;;;;5008151;28;20116;-78
2022/03/02 12:04:39;;;;;;;26.48;13.02;;;9.70;99.90;;;;;;5023450;28;20084;-77
2022/03/02 12:07:05;;;;;;;26.90;11.70;;;9.80;99.90;;;;;;5008167;28;20080;-78
2022/03/02 12:09:36;;;;;;;26.90;12.35;;;9.90;99.90;;;;;;5028719;28;20274;-78
2022/03/02 12:12:21;;;;;;;24.60;12.55;;;9.90;99.90;;;;;;5027662;28;20033;-78
2022/03/02 12:14:56;;;;;;;22.35;10.90;;;9.90;99.90;;;;;;5008739;28;20030;-78
2022/03/02 12:17:25;;;;;;;23.55;11.38;;;10.10;99.90;;;;;;5025837;28;20036;-77
2022/03/02 12:19:58;;;;;;;23.55;11.57;;;10.10;99.90;;;;;;5025887;28;20530;-78
2022/03/02 12:22:37;;;;;;;23.88;11.75;;;10.10;99.90;;;;;;5024678;28;20036;-78
2022/03/02 12:25:04;;;;;;;22.20;9.77;;;10.10;99.90;;;;;;5022885;28;20033;-78
2022/03/02 12:27:30;;;;;;;24.05;10.68;;;10.20;99.90;;;;;;5027449;28;20120;-77
2022/03/02 12:29:59;;;;;;;24.67;11.07;;;10.30;99.90;;;;;;5009283;28;20435;-78
2022/03/02 12:32:36;;;;;;;21.40;10.18;;;10.30;99.90;;;;;;5007418;28;20067;-79
2022/03/02 12:35:09;;;;;;;19.88;10.02;;;10.40;99.90;;;;;;5011930;28;20033;-77
2022/03/02 12:37:35;;;;;;;21.15;11.15;;;10.30;99.70;;;;;;5007386;28;20037;-78
2022/03/02 12:40:09;;;;;;;23.08;10.27;;;10.30;99.90;;;;;;5022632;28;20372;-81
2022/03/02 12:42:35;;;;;;;21.55;9.93;;;10.40;98.80;;;;;;5009322;28;20041;-78